createdAt,value
2023-12-22T00:02:15.567Z,0.60
2023-12-22T00:07:35.670Z,0.75
2023-12-22T00:15:15.086Z,0.50
2023-12-22T00:20:37.485Z,0.82
2023-12-22T00:32:06.157Z,0.70
2023-12-22T00:37:29.550Z,0.80
2023-12-22T00:42:33.815Z,0.80
2023-12-22T00:47:56.125Z,0.57
2023-12-22T00:53:12.235Z,0.83
2023-12-22T00:58:18.547Z,0.80
2023-12-22T01:08:43.124Z,0.70
2023-12-22T01:13:46.760Z,0.73
2023-12-22T01:18:49.378Z,0.80
2023-12-22T01:23:56.666Z,0.75
2023-12-22T01:29:09.657Z,0.60
2023-12-22T01:34:13.178Z,0.73
2023-12-22T01:39:15.432Z,0.95
2023-12-22T01:49:27.156Z,0.57
2023-12-22T01:54:33.328Z,0.50
2023-12-22T01:59:40.275Z,0.50
2023-12-22T02:04:50.195Z,0.50
2023-12-22T02:09:52.280Z,0.52
2023-12-22T02:22:18.014Z,0.73
2023-12-22T02:27:29.677Z,0.75
2023-12-22T02:32:43.027Z,0.93
2023-12-22T02:37:55.345Z,0.90
2023-12-22T02:43:02.210Z,1.05
2023-12-22T02:48:10.436Z,0.80
2023-12-22T02:53:33.332Z,0.73
2023-12-22T02:58:45.274Z,0.57
2023-12-22T03:03:47.555Z,0.80
2023-12-22T03:08:50.832Z,0.73
2023-12-22T03:13:53.925Z,0.75
2023-12-22T03:18:55.952Z,0.70
2023-12-22T03:29:11.399Z,0.63
2023-12-22T03:34:15.361Z,0.80
2023-12-22T03:39:20.782Z,0.60
2023-12-22T03:44:26.980Z,0.55
2023-12-22T03:49:30.106Z,0.65
2023-12-22T03:54:32.336Z,0.82
2023-12-22T04:04:40.703Z,0.63
2023-12-22T04:09:44.239Z,0.65
2023-12-22T04:14:58.077Z,0.68
2023-12-22T04:20:04.375Z,0.85
2023-12-22T04:25:09.688Z,0.70
2023-12-22T04:30:14.640Z,0.82
2023-12-22T04:35:19.338Z,0.90
2023-12-22T04:45:29.956Z,0.77
2023-12-22T04:50:35.323Z,0.90
2023-12-22T04:55:37.587Z,0.60
2023-12-22T05:06:20.242Z,1.10
2023-12-22T05:11:25.957Z,1.20
2023-12-22T05:16:30.101Z,1.27
2023-12-22T05:21:40.093Z,1.23
2023-12-22T05:26:50.687Z,1.10
2023-12-22T05:31:54.684Z,1.13
2023-12-22T05:37:01.050Z,1.35
2023-12-22T05:42:08.429Z,0.98
2023-12-22T05:47:16.394Z,1.77
2023-12-22T05:52:31.297Z,1.42
2023-12-22T05:57:37.066Z,1.63
2023-12-22T06:02:39.657Z,1.98
2023-12-22T06:07:45.055Z,1.63
2023-12-22T06:12:48.292Z,1.73
2023-12-22T06:17:53.782Z,1.60
2023-12-22T06:23:08.079Z,1.40
2023-12-22T06:28:16.009Z,1.35
2023-12-22T06:33:25.419Z,1.35
2023-12-22T06:38:32.480Z,1.23
2023-12-22T06:43:36.433Z,1.98
2023-12-22T06:48:50.305Z,1.45
2023-12-22T06:53:56.829Z,1.60
2023-12-22T06:58:59.575Z,1.80
2023-12-22T07:04:08.357Z,1.48
2023-12-22T07:09:32.274Z,1.25
2023-12-22T07:19:43.727Z,1.10
2023-12-22T07:24:50.899Z,5.97
2023-12-22T07:29:55.670Z,4.97
2023-12-22T07:35:04.590Z,3.65
2023-12-22T07:40:18.120Z,3.10
2023-12-22T07:50:28.572Z,1.83
2023-12-22T07:55:34.941Z,2.25
2023-12-22T08:00:39.577Z,2.10
2023-12-22T08:05:41.976Z,1.80
2023-12-22T08:11:22.123Z,1.90
2023-12-22T08:16:36.997Z,2.00
2023-12-22T08:21:46.742Z,1.80
2023-12-22T08:26:58.388Z,1.55
2023-12-22T08:32:14.984Z,2.05
2023-12-22T08:37:18.278Z,1.70
2023-12-22T08:42:23.276Z,1.55
2023-12-22T08:47:33.217Z,1.90
2023-12-22T08:53:05.048Z,1.50
2023-12-22T08:58:11.710Z,1.63
2023-12-22T09:03:15.397Z,1.60
2023-12-22T09:08:37.990Z,2.03
2023-12-22T09:13:44.370Z,1.60
2023-12-22T09:18:49.628Z,1.75
2023-12-22T09:23:58.591Z,1.60
2023-12-22T09:29:05.654Z,1.50
2023-12-22T09:34:17.356Z,1.50
2023-12-22T09:39:19.756Z,1.40
2023-12-22T09:49:57.462Z,1.67
2023-12-22T09:55:02.664Z,1.55
2023-12-22T10:00:11.365Z,1.73
2023-12-22T10:05:21.218Z,1.60
2023-12-22T10:10:33.639Z,1.77
2023-12-22T10:15:45.273Z,1.80
2023-12-22T10:20:51.602Z,1.88
2023-12-22T10:25:57.243Z,1.70
2023-12-22T10:31:05.260Z,2.00
2023-12-22T10:36:11.225Z,1.83
2023-12-22T10:41:17.712Z,2.03
2023-12-22T10:46:26.185Z,1.92
2023-12-22T10:51:33.926Z,2.00
2023-12-22T10:56:38.146Z,1.20
2023-12-22T11:01:43.268Z,1.40
2023-12-22T11:06:53.483Z,1.50
2023-12-22T11:11:58.647Z,1.40
2023-12-22T11:17:04.310Z,1.83
2023-12-22T11:27:37.709Z,2.25
2023-12-22T11:32:47.386Z,2.80
2023-12-22T11:37:51.664Z,2.25
2023-12-22T11:42:56.947Z,2.20
2023-12-22T11:48:16.587Z,1.50
2023-12-22T11:53:27.420Z,1.85
2023-12-22T11:58:56.596Z,1.50
2023-12-22T12:04:01.373Z,2.20
2023-12-22T12:09:11.938Z,1.90
2023-12-22T12:14:16.804Z,1.90
2023-12-22T12:19:22.279Z,1.85
2023-12-22T12:24:28.213Z,1.73
2023-12-22T12:29:39.065Z,2.20
2023-12-22T12:34:45.639Z,2.55
2023-12-22T12:39:54.910Z,1.90
2023-12-22T12:45:01.075Z,1.80
2023-12-22T12:50:07.446Z,1.77
2023-12-22T12:55:22.337Z,1.83
2023-12-22T13:05:43.445Z,1.73
2023-12-22T13:10:45.939Z,1.60
2023-12-22T13:15:51.680Z,1.70
2023-12-22T13:21:00.438Z,2.10
2023-12-22T13:26:05.201Z,2.13
2023-12-22T13:31:23.125Z,2.90
2023-12-22T13:36:27.094Z,2.22
2023-12-22T13:41:52.108Z,1.70
2023-12-22T13:47:03.374Z,2.00
2023-12-22T13:52:09.350Z,1.52
2023-12-22T13:57:27.425Z,1.80
2023-12-22T14:07:58.129Z,2.22
2023-12-22T14:13:27.087Z,1.88
2023-12-22T14:18:32.686Z,1.58
2023-12-22T14:23:37.277Z,1.85
2023-12-22T14:28:44.771Z,1.75
2023-12-22T14:33:55.132Z,2.55
2023-12-22T14:38:58.411Z,1.95
2023-12-22T14:44:00.742Z,2.13
2023-12-22T14:49:03.556Z,1.65
2023-12-22T14:54:14.154Z,1.88
2023-12-22T14:59:20.107Z,1.70
2023-12-22T15:04:27.538Z,1.38
2023-12-22T15:09:30.952Z,1.60
2023-12-22T15:14:34.575Z,1.40
2023-12-22T15:19:43.660Z,1.75
2023-12-22T15:24:47.152Z,1.65
2023-12-22T15:29:49.426Z,2.28
2023-12-22T15:34:52.480Z,1.67
2023-12-22T15:39:55.986Z,2.13
2023-12-22T15:45:04.161Z,1.92
2023-12-22T15:50:13.441Z,1.67
2023-12-22T15:55:21.244Z,2.40
2023-12-22T16:00:26.861Z,2.60
2023-12-22T16:05:29.483Z,2.38
2023-12-22T16:10:39.242Z,2.60
2023-12-22T16:15:46.373Z,2.72
2023-12-22T16:20:53.643Z,2.05
2023-12-22T16:25:58.220Z,1.42
2023-12-22T16:31:15.793Z,1.30
2023-12-22T16:36:24.190Z,1.25
2023-12-22T16:41:28.897Z,1.60
2023-12-22T16:46:35.438Z,2.55
2023-12-22T16:51:43.616Z,2.53
2023-12-22T16:56:47.751Z,2.28
2023-12-22T17:02:00.936Z,2.70
2023-12-22T17:07:13.317Z,3.22
2023-12-22T17:12:18.334Z,3.58
2023-12-22T17:17:23.080Z,2.70
2023-12-22T17:22:29.751Z,2.85
2023-12-22T17:27:33.635Z,2.63
2023-12-22T17:32:38.003Z,2.95
2023-12-22T17:37:50.618Z,2.80
2023-12-22T17:43:04.412Z,2.00
2023-12-22T17:48:10.037Z,2.65
2023-12-22T17:53:15.981Z,2.90
2023-12-22T17:58:22.505Z,2.30
2023-12-22T18:03:28.213Z,2.60
2023-12-22T18:08:36.729Z,3.30
2023-12-22T18:13:40.820Z,2.33
2023-12-22T18:18:49.178Z,2.30
2023-12-22T18:23:51.745Z,2.00
2023-12-22T18:28:56.020Z,2.15
2023-12-22T18:33:59.515Z,2.70
2023-12-22T18:39:10.592Z,2.67
2023-12-22T18:44:18.510Z,2.53
2023-12-22T18:49:24.308Z,2.65
2023-12-22T18:55:13.129Z,2.17
2023-12-22T19:04:01.817Z,2.58
2023-12-22T19:09:06.483Z,2.65
2023-12-22T19:14:21.033Z,3.13
2023-12-22T19:19:30.242Z,3.00
2023-12-22T19:24:36.045Z,2.13
2023-12-22T19:29:49.234Z,2.55
2023-12-22T19:34:55.167Z,2.20
2023-12-22T19:39:59.236Z,2.00
2023-12-22T19:45:09.822Z,2.65
2023-12-22T19:50:15.025Z,2.30
2023-12-22T19:55:25.979Z,3.08
2023-12-22T20:00:28.628Z,2.60
2023-12-22T20:05:36.035Z,2.40
2023-12-22T20:10:44.240Z,2.20
2023-12-22T20:15:57.817Z,2.35
2023-12-22T20:21:06.679Z,2.70
2023-12-22T20:26:09.411Z,3.00
2023-12-22T20:31:15.687Z,2.83
2023-12-22T20:36:21.997Z,3.00
2023-12-22T20:41:35.439Z,3.40
2023-12-22T20:46:42.318Z,3.65
2023-12-22T20:51:59.693Z,3.13
2023-12-22T20:57:08.460Z,3.20
2023-12-22T21:02:11.089Z,3.65
2023-12-22T21:07:14.541Z,3.13
2023-12-22T21:12:18.481Z,2.80
2023-12-22T21:17:21.651Z,3.30
2023-12-22T21:22:24.211Z,3.30
2023-12-22T21:27:29.218Z,3.33
2023-12-22T21:32:36.293Z,3.40
2023-12-22T21:37:39.440Z,3.95
2023-12-22T21:42:45.650Z,3.92
2023-12-22T21:47:51.634Z,3.92
2023-12-22T21:52:55.051Z,4.25
2023-12-22T21:58:01.734Z,3.80
2023-12-22T22:03:27.010Z,4.00
2023-12-22T22:08:35.559Z,3.40
2023-12-22T22:13:39.886Z,3.40
2023-12-22T22:18:58.265Z,1.98
2023-12-22T22:24:16.684Z,2.20
2023-12-22T22:29:24.333Z,1.92
2023-12-22T22:34:26.869Z,2.47
2023-12-22T22:39:32.393Z,2.58
2023-12-22T22:50:15.041Z,2.38
2023-12-22T22:55:20.945Z,1.80
2023-12-22T23:00:37.814Z,1.80
2023-12-22T23:05:49.844Z,1.77
2023-12-22T23:10:56.975Z,1.50
2023-12-22T23:16:18.936Z,1.73
2023-12-22T23:28:08.552Z,2.58
2023-12-22T23:33:16.625Z,3.90
2023-12-22T23:38:52.342Z,1.90
2023-12-22T23:49:29.164Z,0.85
2023-12-22T23:54:38.803Z,1.00
